sensor_id;sensor_type;location;lat;lon;timestamp;P1;durP1;ratioP1;P2;durP2;ratioP2
19679;SDS011;9989;48.962;9.182;2023-07-29T00:01:15;8.90;;;3.70;;
19679;SDS011;9989;48.962;9.182;2023-07-29T00:03:41;6.83;;;3.40;;
19679;SDS011;9989;48.962;9.182;2023-07-29T00:06:07;7.47;;;3.80;;
19679;SDS011;9989;48.962;9.182;2023-07-29T00:08:32;7.37;;;3.60;;
19679;SDS011;9989;48.962;9.182;2023-07-29T00:10:58;8.60;;;4.10;;
19679;SDS011;9989;48.962;9.182;2023-07-29T00:13:23;7.73;;;3.93;;
19679;SDS011;9989;48.962;9.182;2023-07-29T00:15:49;7.40;;;3.70;;
19679;SDS011;9989;48.962;9.182;2023-07-29T00:18:15;6.80;;;3.37;;
19679;SDS011;9989;48.962;9.182;2023-07-29T00:20:40;7.70;;;3.80;;
19679;SDS011;9989;48.962;9.182;2023-07-29T00:23:06;7.30;;;3.47;;
19679;SDS011;9989;48.962;9.182;2023-07-29T00:25:31;8.53;;;3.70;;
19679;SDS011;9989;48.962;9.182;2023-07-29T00:27:58;7.73;;;3.93;;
19679;SDS011;9989;48.962;9.182;2023-07-29T00:30:24;9.17;;;3.67;;
19679;SDS011;9989;48.962;9.182;2023-07-29T00:32:49;7.93;;;3.50;;
19679;SDS011;9989;48.962;9.182;2023-07-29T00:35:15;7.40;;;3.40;;
19679;SDS011;9989;48.962;9.182;2023-07-29T00:37:40;6.40;;;3.20;;
19679;SDS011;9989;48.962;9.182;2023-07-29T00:40:09;6.53;;;3.00;;
19679;SDS011;9989;48.962;9.182;2023-07-29T00:42:44;7.63;;;3.30;;
19679;SDS011;9989;48.962;9.182;2023-07-29T00:45:10;6.67;;;3.07;;
19679;SDS011;9989;48.962;9.182;2023-07-29T00:47:36;8.27;;;3.53;;
19679;SDS011;9989;48.962;9.182;2023-07-29T00:50:02;8.10;;;3.43;;
19679;SDS011;9989;48.962;9.182;2023-07-29T00:52:28;6.27;;;3.00;;
19679;SDS011;9989;48.962;9.182;2023-07-29T00:54:54;6.60;;;3.27;;
19679;SDS011;9989;48.962;9.182;2023-07-29T00:57:20;6.67;;;3.20;;
19679;SDS011;9989;48.962;9.182;2023-07-29T00:59:46;6.13;;;3.10;;
19679;SDS011;9989;48.962;9.182;2023-07-29T01:02:12;8.17;;;3.40;;
19679;SDS011;9989;48.962;9.182;2023-07-29T01:04:38;6.43;;;3.17;;
19679;SDS011;9989;48.962;9.182;2023-07-29T01:12:17;6.07;;;3.03;;
19679;SDS011;9989;48.962;9.182;2023-07-29T01:14:55;7.07;;;2.83;;
19679;SDS011;9989;48.962;9.182;2023-07-29T01:17:33;6.50;;;3.07;;
19679;SDS011;9989;48.962;9.182;2023-07-29T01:20:10;8.20;;;3.00;;
19679;SDS011;9989;48.962;9.182;2023-07-29T01:22:39;5.87;;;2.83;;
19679;SDS011;9989;48.962;9.182;2023-07-29T01:25:05;6.33;;;2.97;;
19679;SDS011;9989;48.962;9.182;2023-07-29T01:27:31;5.33;;;2.40;;
19679;SDS011;9989;48.962;9.182;2023-07-29T01:29:57;5.27;;;2.67;;
19679;SDS011;9989;48.962;9.182;2023-07-29T01:37:38;7.10;;;3.10;;
19679;SDS011;9989;48.962;9.182;2023-07-29T01:40:05;6.50;;;2.53;;
19679;SDS011;9989;48.962;9.182;2023-07-29T01:42:33;5.93;;;2.50;;
19679;SDS011;9989;48.962;9.182;2023-07-29T01:44:59;4.87;;;2.23;;
19679;SDS011;9989;48.962;9.182;2023-07-29T01:47:25;5.17;;;2.23;;
19679;SDS011;9989;48.962;9.182;2023-07-29T01:49:51;5.50;;;2.33;;
19679;SDS011;9989;48.962;9.182;2023-07-29T01:52:16;6.33;;;2.80;;
19679;SDS011;9989;48.962;9.182;2023-07-29T01:54:42;6.30;;;2.87;;
19679;SDS011;9989;48.962;9.182;2023-07-29T01:57:07;5.77;;;2.77;;
19679;SDS011;9989;48.962;9.182;2023-07-29T01:59:33;6.43;;;2.80;;
19679;SDS011;9989;48.962;9.182;2023-07-29T02:01:59;7.33;;;2.53;;
19679;SDS011;9989;48.962;9.182;2023-07-29T02:04:24;8.73;;;3.13;;
19679;SDS011;9989;48.962;9.182;2023-07-29T02:06:50;5.40;;;2.43;;
19679;SDS011;9989;48.962;9.182;2023-07-29T02:09:16;5.93;;;2.67;;
19679;SDS011;9989;48.962;9.182;2023-07-29T02:11:42;5.40;;;2.40;;
19679;SDS011;9989;48.962;9.182;2023-07-29T02:14:07;6.13;;;2.90;;
19679;SDS011;9989;48.962;9.182;2023-07-29T02:16:33;5.27;;;2.40;;
19679;SDS011;9989;48.962;9.182;2023-07-29T02:18:59;5.83;;;2.27;;
19679;SDS011;9989;48.962;9.182;2023-07-29T02:21:25;5.67;;;2.40;;
19679;SDS011;9989;48.962;9.182;2023-07-29T02:23:51;5.00;;;2.20;;
19679;SDS011;9989;48.962;9.182;2023-07-29T02:26:17;6.40;;;2.40;;
19679;SDS011;9989;48.962;9.182;2023-07-29T02:28:42;5.33;;;2.30;;
19679;SDS011;9989;48.962;9.182;2023-07-29T02:33:45;4.53;;;2.10;;
19679;SDS011;9989;48.962;9.182;2023-07-29T02:36:12;6.10;;;2.30;;
19679;SDS011;9989;48.962;9.182;2023-07-29T02:38:38;4.90;;;2.10;;
19679;SDS011;9989;48.962;9.182;2023-07-29T02:41:04;4.53;;;2.00;;
19679;SDS011;9989;48.962;9.182;2023-07-29T02:43:30;6.03;;;2.50;;
19679;SDS011;9989;48.962;9.182;2023-07-29T02:45:56;5.60;;;2.20;;
19679;SDS011;9989;48.962;9.182;2023-07-29T02:48:21;5.00;;;2.03;;
19679;SDS011;9989;48.962;9.182;2023-07-29T02:50:47;5.30;;;2.17;;
19679;SDS011;9989;48.962;9.182;2023-07-29T02:53:13;5.13;;;2.10;;
19679;SDS011;9989;48.962;9.182;2023-07-29T02:55:41;4.87;;;2.00;;
19679;SDS011;9989;48.962;9.182;2023-07-29T02:58:07;6.70;;;2.20;;
19679;SDS011;9989;48.962;9.182;2023-07-29T03:00:33;4.77;;;2.07;;
19679;SDS011;9989;48.962;9.182;2023-07-29T03:02:59;5.13;;;1.80;;
19679;SDS011;9989;48.962;9.182;2023-07-29T03:05:27;6.43;;;2.07;;
19679;SDS011;9989;48.962;9.182;2023-07-29T03:07:52;7.40;;;2.00;;
19679;SDS011;9989;48.962;9.182;2023-07-29T03:10:18;5.50;;;2.10;;
19679;SDS011;9989;48.962;9.182;2023-07-29T03:12:44;4.67;;;2.20;;
19679;SDS011;9989;48.962;9.182;2023-07-29T03:15:09;4.83;;;2.03;;
19679;SDS011;9989;48.962;9.182;2023-07-29T03:17:35;5.17;;;2.20;;
19679;SDS011;9989;48.962;9.182;2023-07-29T03:20:00;4.33;;;2.10;;
19679;SDS011;9989;48.962;9.182;2023-07-29T03:22:26;4.17;;;1.97;;
19679;SDS011;9989;48.962;9.182;2023-07-29T03:24:52;3.87;;;1.77;;
19679;SDS011;9989;48.962;9.182;2023-07-29T03:27:17;5.70;;;2.27;;
19679;SDS011;9989;48.962;9.182;2023-07-29T03:29:43;4.23;;;1.87;;
19679;SDS011;9989;48.962;9.182;2023-07-29T03:32:09;5.83;;;2.30;;
19679;SDS011;9989;48.962;9.182;2023-07-29T03:34:34;4.37;;;1.77;;
19679;SDS011;9989;48.962;9.182;2023-07-29T03:37:00;3.83;;;1.83;;
19679;SDS011;9989;48.962;9.182;2023-07-29T03:39:26;4.23;;;1.93;;
19679;SDS011;9989;48.962;9.182;2023-07-29T03:41:52;5.07;;;1.80;;
19679;SDS011;9989;48.962;9.182;2023-07-29T03:44:18;6.37;;;2.00;;
19679;SDS011;9989;48.962;9.182;2023-07-29T03:46:46;4.70;;;2.10;;
19679;SDS011;9989;48.962;9.182;2023-07-29T03:49:12;7.50;;;2.23;;
19679;SDS011;9989;48.962;9.182;2023-07-29T03:51:37;3.53;;;1.70;;
19679;SDS011;9989;48.962;9.182;2023-07-29T03:54:03;6.47;;;1.90;;
19679;SDS011;9989;48.962;9.182;2023-07-29T03:56:29;4.17;;;1.90;;
19679;SDS011;9989;48.962;9.182;2023-07-29T03:59:01;5.07;;;1.90;;
19679;SDS011;9989;48.962;9.182;2023-07-29T04:01:30;3.97;;;2.00;;
19679;SDS011;9989;48.962;9.182;2023-07-29T04:03:57;4.10;;;1.97;;
19679;SDS011;9989;48.962;9.182;2023-07-29T04:06:23;6.60;;;2.10;;
19679;SDS011;9989;48.962;9.182;2023-07-29T04:08:49;4.43;;;1.97;;
19679;SDS011;9989;48.962;9.182;2023-07-29T04:11:14;4.53;;;2.17;;
19679;SDS011;9989;48.962;9.182;2023-07-29T04:13:40;6.03;;;2.10;;
19679;SDS011;9989;48.962;9.182;2023-07-29T04:16:06;4.37;;;1.90;;
19679;SDS011;9989;48.962;9.182;2023-07-29T04:18:32;4.13;;;1.83;;
19679;SDS011;9989;48.962;9.182;2023-07-29T04:20:57;5.70;;;1.83;;
19679;SDS011;9989;48.962;9.182;2023-07-29T04:23:23;4.80;;;2.00;;
19679;SDS011;9989;48.962;9.182;2023-07-29T04:25:49;5.17;;;1.77;;
19679;SDS011;9989;48.962;9.182;2023-07-29T04:28:15;4.17;;;2.00;;
19679;SDS011;9989;48.962;9.182;2023-07-29T04:30:40;4.53;;;2.00;;
19679;SDS011;9989;48.962;9.182;2023-07-29T04:33:06;6.23;;;2.30;;
19679;SDS011;9989;48.962;9.182;2023-07-29T04:35:32;5.40;;;1.90;;
19679;SDS011;9989;48.962;9.182;2023-07-29T04:37:58;5.20;;;2.30;;
19679;SDS011;9989;48.962;9.182;2023-07-29T04:40:23;4.13;;;1.90;;
19679;SDS011;9989;48.962;9.182;2023-07-29T04:42:49;4.40;;;1.87;;
19679;SDS011;9989;48.962;9.182;2023-07-29T04:45:16;5.17;;;2.50;;
19679;SDS011;9989;48.962;9.182;2023-07-29T04:47:42;5.97;;;2.10;;
19679;SDS011;9989;48.962;9.182;2023-07-29T04:50:07;4.97;;;2.20;;
19679;SDS011;9989;48.962;9.182;2023-07-29T04:52:33;4.47;;;1.93;;
19679;SDS011;9989;48.962;9.182;2023-07-29T04:54:59;6.90;;;2.73;;
19679;SDS011;9989;48.962;9.182;2023-07-29T04:57:25;4.80;;;2.00;;
19679;SDS011;9989;48.962;9.182;2023-07-29T04:59:50;5.63;;;2.33;;
19679;SDS011;9989;48.962;9.182;2023-07-29T05:02:16;5.67;;;2.50;;
19679;SDS011;9989;48.962;9.182;2023-07-29T05:04:42;4.97;;;2.10;;
19679;SDS011;9989;48.962;9.182;2023-07-29T05:07:07;5.97;;;2.50;;
19679;SDS011;9989;48.962;9.182;2023-07-29T05:09:33;5.90;;;2.80;;
19679;SDS011;9989;48.962;9.182;2023-07-29T05:11:59;6.10;;;2.50;;
19679;SDS011;9989;48.962;9.182;2023-07-29T05:14:24;5.30;;;2.57;;
19679;SDS011;9989;48.962;9.182;2023-07-29T05:16:50;8.53;;;2.97;;
19679;SDS011;9989;48.962;9.182;2023-07-29T05:19:15;7.83;;;3.37;;
19679;SDS011;9989;48.962;9.182;2023-07-29T05:21:41;7.23;;;3.30;;
19679;SDS011;9989;48.962;9.182;2023-07-29T05:24:07;6.33;;;2.77;;
19679;SDS011;9989;48.962;9.182;2023-07-29T05:26:32;6.80;;;2.53;;
19679;SDS011;9989;48.962;9.182;2023-07-29T05:28:58;6.37;;;2.53;;
19679;SDS011;9989;48.962;9.182;2023-07-29T05:31:24;7.23;;;2.53;;
19679;SDS011;9989;48.962;9.182;2023-07-29T05:33:49;5.00;;;2.20;;
19679;SDS011;9989;48.962;9.182;2023-07-29T05:36:15;5.73;;;2.47;;
19679;SDS011;9989;48.962;9.182;2023-07-29T05:38:41;8.07;;;2.50;;
19679;SDS011;9989;48.962;9.182;2023-07-29T05:41:07;6.17;;;2.43;;
19679;SDS011;9989;48.962;9.182;2023-07-29T05:43:32;5.70;;;2.53;;
19679;SDS011;9989;48.962;9.182;2023-07-29T05:45:58;5.73;;;2.70;;
19679;SDS011;9989;48.962;9.182;2023-07-29T05:48:23;6.27;;;2.80;;
19679;SDS011;9989;48.962;9.182;2023-07-29T05:50:49;7.67;;;3.20;;
19679;SDS011;9989;48.962;9.182;2023-07-29T05:53:15;6.90;;;3.00;;
19679;SDS011;9989;48.962;9.182;2023-07-29T05:55:41;6.03;;;2.60;;
19679;SDS011;9989;48.962;9.182;2023-07-29T05:58:06;9.20;;;3.20;;
19679;SDS011;9989;48.962;9.182;2023-07-29T06:00:32;6.80;;;2.70;;
19679;SDS011;9989;48.962;9.182;2023-07-29T06:02:57;9.77;;;3.70;;
19679;SDS011;9989;48.962;9.182;2023-07-29T06:05:23;5.50;;;2.70;;
19679;SDS011;9989;48.962;9.182;2023-07-29T06:07:49;5.83;;;2.87;;
19679;SDS011;9989;48.962;9.182;2023-07-29T06:10:15;6.57;;;2.90;;
19679;SDS011;9989;48.962;9.182;2023-07-29T06:12:44;6.60;;;2.47;;
19679;SDS011;9989;48.962;9.182;2023-07-29T06:15:10;5.53;;;2.23;;
19679;SDS011;9989;48.962;9.182;2023-07-29T06:17:37;6.90;;;2.57;;
19679;SDS011;9989;48.962;9.182;2023-07-29T06:20:03;6.43;;;2.17;;
19679;SDS011;9989;48.962;9.182;2023-07-29T06:22:29;5.53;;;2.33;;
19679;SDS011;9989;48.962;9.182;2023-07-29T06:24:55;5.10;;;2.10;;
19679;SDS011;9989;48.962;9.182;2023-07-29T06:27:20;6.20;;;2.13;;
19679;SDS011;9989;48.962;9.182;2023-07-29T06:29:46;5.17;;;2.37;;
19679;SDS011;9989;48.962;9.182;2023-07-29T06:32:12;4.50;;;1.90;;
19679;SDS011;9989;48.962;9.182;2023-07-29T06:34:37;5.57;;;2.33;;
19679;SDS011;9989;48.962;9.182;2023-07-29T06:37:03;4.30;;;2.10;;
19679;SDS011;9989;48.962;9.182;2023-07-29T06:39:28;5.43;;;2.20;;
19679;SDS011;9989;48.962;9.182;2023-07-29T06:41:54;7.27;;;2.43;;
19679;SDS011;9989;48.962;9.182;2023-07-29T06:44:20;5.40;;;2.20;;
19679;SDS011;9989;48.962;9.182;2023-07-29T06:46:45;5.17;;;1.97;;
19679;SDS011;9989;48.962;9.182;2023-07-29T06:49:11;3.50;;;1.70;;
19679;SDS011;9989;48.962;9.182;2023-07-29T06:51:37;5.93;;;1.97;;
19679;SDS011;9989;48.962;9.182;2023-07-29T06:54:03;4.70;;;2.10;;
19679;SDS011;9989;48.962;9.182;2023-07-29T06:56:28;5.63;;;2.00;;
19679;SDS011;9989;48.962;9.182;2023-07-29T06:58:54;5.97;;;2.43;;
19679;SDS011;9989;48.962;9.182;2023-07-29T07:01:20;5.87;;;2.27;;
19679;SDS011;9989;48.962;9.182;2023-07-29T07:03:45;4.47;;;2.07;;
19679;SDS011;9989;48.962;9.182;2023-07-29T07:06:11;4.83;;;2.23;;
19679;SDS011;9989;48.962;9.182;2023-07-29T07:08:37;5.63;;;2.30;;
19679;SDS011;9989;48.962;9.182;2023-07-29T07:11:02;6.20;;;2.30;;
19679;SDS011;9989;48.962;9.182;2023-07-29T07:13:28;5.43;;;2.27;;
19679;SDS011;9989;48.962;9.182;2023-07-29T07:15:54;4.90;;;2.10;;
19679;SDS011;9989;48.962;9.182;2023-07-29T07:18:20;5.87;;;2.50;;
19679;SDS011;9989;48.962;9.182;2023-07-29T07:20:49;5.27;;;2.27;;
19679;SDS011;9989;48.962;9.182;2023-07-29T07:23:15;5.63;;;2.10;;
19679;SDS011;9989;48.962;9.182;2023-07-29T07:25:42;4.33;;;2.00;;
19679;SDS011;9989;48.962;9.182;2023-07-29T07:28:08;5.60;;;2.30;;
19679;SDS011;9989;48.962;9.182;2023-07-29T07:30:34;4.07;;;1.80;;
19679;SDS011;9989;48.962;9.182;2023-07-29T07:33:00;6.63;;;2.80;;
19679;SDS011;9989;48.962;9.182;2023-07-29T07:35:26;5.07;;;2.20;;
19679;SDS011;9989;48.962;9.182;2023-07-29T07:37:52;5.00;;;2.33;;
19679;SDS011;9989;48.962;9.182;2023-07-29T07:40:17;6.33;;;2.37;;
19679;SDS011;9989;48.962;9.182;2023-07-29T07:42:43;5.23;;;2.17;;
19679;SDS011;9989;48.962;9.182;2023-07-29T07:45:09;4.67;;;1.90;;
19679;SDS011;9989;48.962;9.182;2023-07-29T07:47:34;4.97;;;2.13;;
19679;SDS011;9989;48.962;9.182;2023-07-29T07:50:00;5.70;;;2.33;;
19679;SDS011;9989;48.962;9.182;2023-07-29T07:52:26;5.67;;;2.40;;
19679;SDS011;9989;48.962;9.182;2023-07-29T07:54:54;10.77;;;3.00;;
19679;SDS011;9989;48.962;9.182;2023-07-29T07:57:20;7.20;;;2.60;;
19679;SDS011;9989;48.962;9.182;2023-07-29T07:59:46;5.27;;;2.37;;
19679;SDS011;9989;48.962;9.182;2023-07-29T08:02:12;6.17;;;2.47;;
19679;SDS011;9989;48.962;9.182;2023-07-29T08:04:38;6.87;;;2.27;;
19679;SDS011;9989;48.962;9.182;2023-07-29T08:07:03;5.53;;;2.10;;
19679;SDS011;9989;48.962;9.182;2023-07-29T08:09:29;9.47;;;2.80;;
19679;SDS011;9989;48.962;9.182;2023-07-29T08:11:55;7.03;;;2.67;;
19679;SDS011;9989;48.962;9.182;2023-07-29T08:14:20;6.57;;;2.90;;
19679;SDS011;9989;48.962;9.182;2023-07-29T08:16:46;6.17;;;2.80;;
19679;SDS011;9989;48.962;9.182;2023-07-29T08:19:11;5.47;;;2.37;;
19679;SDS011;9989;48.962;9.182;2023-07-29T08:21:37;5.53;;;2.43;;
19679;SDS011;9989;48.962;9.182;2023-07-29T08:24:02;5.23;;;2.20;;
19679;SDS011;9989;48.962;9.182;2023-07-29T08:26:28;6.47;;;2.57;;
19679;SDS011;9989;48.962;9.182;2023-07-29T08:28:55;4.33;;;1.93;;
19679;SDS011;9989;48.962;9.182;2023-07-29T08:31:20;4.93;;;1.97;;
19679;SDS011;9989;48.962;9.182;2023-07-29T08:33:46;5.40;;;2.17;;
19679;SDS011;9989;48.962;9.182;2023-07-29T08:36:12;5.07;;;2.37;;
19679;SDS011;9989;48.962;9.182;2023-07-29T08:38:37;4.43;;;1.97;;
19679;SDS011;9989;48.962;9.182;2023-07-29T08:43:59;3.47;;;1.47;;
19679;SDS011;9989;48.962;9.182;2023-07-29T08:46:32;4.13;;;1.63;;
19679;SDS011;9989;48.962;9.182;2023-07-29T08:48:58;2.50;;;1.40;;
19679;SDS011;9989;48.962;9.182;2023-07-29T08:51:24;3.40;;;1.50;;
19679;SDS011;9989;48.962;9.182;2023-07-29T08:53:51;4.33;;;1.53;;
19679;SDS011;9989;48.962;9.182;2023-07-29T08:56:18;4.17;;;1.70;;
19679;SDS011;9989;48.962;9.182;2023-07-29T08:58:43;3.57;;;1.47;;
19679;SDS011;9989;48.962;9.182;2023-07-29T09:01:09;3.13;;;1.40;;
19679;SDS011;9989;48.962;9.182;2023-07-29T09:03:35;3.43;;;1.50;;
19679;SDS011;9989;48.962;9.182;2023-07-29T09:06:01;4.20;;;1.60;;
19679;SDS011;9989;48.962;9.182;2023-07-29T09:08:28;7.53;;;1.77;;
19679;SDS011;9989;48.962;9.182;2023-07-29T09:10:54;3.50;;;1.60;;
19679;SDS011;9989;48.962;9.182;2023-07-29T09:13:23;5.17;;;1.70;;
19679;SDS011;9989;48.962;9.182;2023-07-29T09:15:49;3.13;;;1.67;;
19679;SDS011;9989;48.962;9.182;2023-07-29T09:18:20;3.83;;;1.70;;
19679;SDS011;9989;48.962;9.182;2023-07-29T09:20:47;3.70;;;1.40;;
19679;SDS011;9989;48.962;9.182;2023-07-29T09:23:13;4.10;;;1.67;;
19679;SDS011;9989;48.962;9.182;2023-07-29T09:25:39;6.07;;;1.63;;
19679;SDS011;9989;48.962;9.182;2023-07-29T09:28:15;5.37;;;1.40;;
19679;SDS011;9989;48.962;9.182;2023-07-29T09:30:42;4.00;;;1.60;;
19679;SDS011;9989;48.962;9.182;2023-07-29T09:33:10;4.50;;;1.60;;
19679;SDS011;9989;48.962;9.182;2023-07-29T09:35:36;2.80;;;1.33;;
19679;SDS011;9989;48.962;9.182;2023-07-29T09:38:03;2.40;;;1.30;;
19679;SDS011;9989;48.962;9.182;2023-07-29T09:40:36;2.87;;;1.30;;
19679;SDS011;9989;48.962;9.182;2023-07-29T09:43:02;4.67;;;1.80;;
19679;SDS011;9989;48.962;9.182;2023-07-29T09:45:29;2.77;;;1.20;;
19679;SDS011;9989;48.962;9.182;2023-07-29T09:47:54;3.50;;;1.47;;
19679;SDS011;9989;48.962;9.182;2023-07-29T09:50:25;3.23;;;1.00;;
19679;SDS011;9989;48.962;9.182;2023-07-29T09:52:52;3.50;;;1.27;;
19679;SDS011;9989;48.962;9.182;2023-07-29T09:55:19;3.03;;;1.30;;
19679;SDS011;9989;48.962;9.182;2023-07-29T09:57:46;5.30;;;1.67;;
19679;SDS011;9989;48.962;9.182;2023-07-29T10:00:12;4.03;;;1.50;;
19679;SDS011;9989;48.962;9.182;2023-07-29T10:02:39;2.90;;;1.10;;
19679;SDS011;9989;48.962;9.182;2023-07-29T10:05:06;3.37;;;1.30;;
19679;SDS011;9989;48.962;9.182;2023-07-29T10:07:33;5.53;;;1.40;;
19679;SDS011;9989;48.962;9.182;2023-07-29T10:10:02;4.93;;;1.33;;
19679;SDS011;9989;48.962;9.182;2023-07-29T10:12:30;3.20;;;1.40;;
19679;SDS011;9989;48.962;9.182;2023-07-29T10:14:58;3.70;;;1.40;;
19679;SDS011;9989;48.962;9.182;2023-07-29T10:17:25;3.80;;;1.30;;
19679;SDS011;9989;48.962;9.182;2023-07-29T10:19:52;3.47;;;1.40;;
19679;SDS011;9989;48.962;9.182;2023-07-29T10:22:20;2.87;;;1.30;;
19679;SDS011;9989;48.962;9.182;2023-07-29T10:24:46;3.77;;;1.40;;
19679;SDS011;9989;48.962;9.182;2023-07-29T10:27:14;2.43;;;1.10;;
19679;SDS011;9989;48.962;9.182;2023-07-29T10:29:44;3.20;;;1.37;;
19679;SDS011;9989;48.962;9.182;2023-07-29T10:32:11;2.60;;;1.23;;
19679;SDS011;9989;48.962;9.182;2023-07-29T10:34:37;5.70;;;1.40;;
19679;SDS011;9989;48.962;9.182;2023-07-29T10:37:03;2.23;;;1.33;;
19679;SDS011;9989;48.962;9.182;2023-07-29T10:39:37;3.40;;;1.40;;
19679;SDS011;9989;48.962;9.182;2023-07-29T10:42:05;3.83;;;1.60;;
19679;SDS011;9989;48.962;9.182;2023-07-29T10:49:40;2.97;;;1.30;;
19679;SDS011;9989;48.962;9.182;2023-07-29T10:52:06;3.97;;;1.50;;
19679;SDS011;9989;48.962;9.182;2023-07-29T10:54:33;3.17;;;1.57;;
19679;SDS011;9989;48.962;9.182;2023-07-29T10:57:54;3.67;;;1.40;;
19679;SDS011;9989;48.962;9.182;2023-07-29T11:00:00;3.13;;;1.50;;
19679;SDS011;9989;48.962;9.182;2023-07-29T11:02:31;6.60;;;1.50;;
19679;SDS011;9989;48.962;9.182;2023-07-29T11:05:04;2.73;;;1.40;;
19679;SDS011;9989;48.962;9.182;2023-07-29T11:07:47;4.90;;;1.70;;
19679;SDS011;9989;48.962;9.182;2023-07-29T11:10:13;3.73;;;1.73;;
19679;SDS011;9989;48.962;9.182;2023-07-29T11:17:57;3.33;;;1.50;;
19679;SDS011;9989;48.962;9.182;2023-07-29T11:20:23;4.63;;;1.53;;
19679;SDS011;9989;48.962;9.182;2023-07-29T11:22:50;2.67;;;1.13;;
19679;SDS011;9989;48.962;9.182;2023-07-29T11:25:16;4.93;;;1.30;;
19679;SDS011;9989;48.962;9.182;2023-07-29T11:27:43;2.27;;;1.40;;
19679;SDS011;9989;48.962;9.182;2023-07-29T11:30:10;2.53;;;1.30;;
19679;SDS011;9989;48.962;9.182;2023-07-29T11:32:37;3.13;;;1.40;;
19679;SDS011;9989;48.962;9.182;2023-07-29T11:35:05;3.77;;;1.43;;
19679;SDS011;9989;48.962;9.182;2023-07-29T11:37:35;3.47;;;1.30;;
19679;SDS011;9989;48.962;9.182;2023-07-29T11:40:02;2.23;;;1.20;;
19679;SDS011;9989;48.962;9.182;2023-07-29T11:42:31;2.67;;;1.30;;
19679;SDS011;9989;48.962;9.182;2023-07-29T11:45:00;2.90;;;1.17;;
19679;SDS011;9989;48.962;9.182;2023-07-29T11:47:27;2.70;;;1.40;;
19679;SDS011;9989;48.962;9.182;2023-07-29T11:49:53;2.83;;;1.30;;
19679;SDS011;9989;48.962;9.182;2023-07-29T11:52:19;4.00;;;1.50;;
19679;SDS011;9989;48.962;9.182;2023-07-29T11:54:48;2.63;;;1.20;;
19679;SDS011;9989;48.962;9.182;2023-07-29T11:57:14;2.70;;;1.30;;
19679;SDS011;9989;48.962;9.182;2023-07-29T11:59:41;3.17;;;1.50;;
19679;SDS011;9989;48.962;9.182;2023-07-29T12:02:11;2.67;;;1.47;;
19679;SDS011;9989;48.962;9.182;2023-07-29T12:04:39;3.17;;;1.40;;
19679;SDS011;9989;48.962;9.182;2023-07-29T12:07:06;3.13;;;1.40;;
19679;SDS011;9989;48.962;9.182;2023-07-29T12:09:33;3.17;;;1.50;;
19679;SDS011;9989;48.962;9.182;2023-07-29T12:12:00;3.37;;;1.47;;
19679;SDS011;9989;48.962;9.182;2023-07-29T12:14:30;3.93;;;1.57;;
19679;SDS011;9989;48.962;9.182;2023-07-29T12:16:56;3.30;;;1.50;;
19679;SDS011;9989;48.962;9.182;2023-07-29T12:19:33;2.63;;;1.37;;
19679;SDS011;9989;48.962;9.182;2023-07-29T12:22:00;3.20;;;1.50;;
19679;SDS011;9989;48.962;9.182;2023-07-29T12:24:26;4.07;;;1.60;;
19679;SDS011;9989;48.962;9.182;2023-07-29T12:26:52;2.73;;;1.30;;
19679;SDS011;9989;48.962;9.182;2023-07-29T12:29:19;2.50;;;1.40;;
19679;SDS011;9989;48.962;9.182;2023-07-29T12:31:45;4.83;;;1.40;;
19679;SDS011;9989;48.962;9.182;2023-07-29T12:34:17;4.60;;;1.80;;
19679;SDS011;9989;48.962;9.182;2023-07-29T12:36:46;3.70;;;1.57;;
19679;SDS011;9989;48.962;9.182;2023-07-29T12:39:17;3.73;;;1.80;;
19679;SDS011;9989;48.962;9.182;2023-07-29T12:41:54;3.60;;;1.63;;
19679;SDS011;9989;48.962;9.182;2023-07-29T12:44:23;3.63;;;1.60;;
19679;SDS011;9989;48.962;9.182;2023-07-29T12:46:50;3.70;;;1.70;;
19679;SDS011;9989;48.962;9.182;2023-07-29T12:49:16;4.13;;;1.70;;
19679;SDS011;9989;48.962;9.182;2023-07-29T12:51:42;4.17;;;1.90;;
19679;SDS011;9989;48.962;9.182;2023-07-29T12:54:08;3.70;;;1.63;;
19679;SDS011;9989;48.962;9.182;2023-07-29T12:56:34;4.90;;;1.73;;
19679;SDS011;9989;48.962;9.182;2023-07-29T12:59:00;5.47;;;1.80;;
19679;SDS011;9989;48.962;9.182;2023-07-29T13:01:27;5.40;;;1.83;;
19679;SDS011;9989;48.962;9.182;2023-07-29T13:03:53;3.97;;;1.80;;
19679;SDS011;9989;48.962;9.182;2023-07-29T13:06:20;4.87;;;1.77;;
19679;SDS011;9989;48.962;9.182;2023-07-29T13:08:46;5.83;;;1.80;;
19679;SDS011;9989;48.962;9.182;2023-07-29T13:11:12;3.80;;;1.80;;
19679;SDS011;9989;48.962;9.182;2023-07-29T13:13:38;3.97;;;1.87;;
19679;SDS011;9989;48.962;9.182;2023-07-29T13:16:04;5.60;;;1.80;;
19679;SDS011;9989;48.962;9.182;2023-07-29T13:18:31;4.13;;;1.80;;
19679;SDS011;9989;48.962;9.182;2023-07-29T13:20:56;3.17;;;1.67;;
19679;SDS011;9989;48.962;9.182;2023-07-29T13:23:22;4.80;;;1.83;;
19679;SDS011;9989;48.962;9.182;2023-07-29T13:25:48;3.97;;;1.70;;
19679;SDS011;9989;48.962;9.182;2023-07-29T13:28:13;3.77;;;1.87;;
19679;SDS011;9989;48.962;9.182;2023-07-29T13:30:39;3.90;;;1.80;;
19679;SDS011;9989;48.962;9.182;2023-07-29T13:33:08;3.90;;;1.70;;
19679;SDS011;9989;48.962;9.182;2023-07-29T13:35:34;4.37;;;1.97;;
19679;SDS011;9989;48.962;9.182;2023-07-29T13:38:00;4.13;;;1.67;;
19679;SDS011;9989;48.962;9.182;2023-07-29T13:40:26;5.53;;;1.83;;
19679;SDS011;9989;48.962;9.182;2023-07-29T13:42:52;5.13;;;2.07;;
19679;SDS011;9989;48.962;9.182;2023-07-29T13:45:17;3.63;;;1.83;;
19679;SDS011;9989;48.962;9.182;2023-07-29T13:47:43;4.00;;;1.83;;
19679;SDS011;9989;48.962;9.182;2023-07-29T13:50:09;4.10;;;1.73;;
19679;SDS011;9989;48.962;9.182;2023-07-29T13:52:36;4.93;;;2.10;;
19679;SDS011;9989;48.962;9.182;2023-07-29T13:55:03;6.53;;;2.10;;
19679;SDS011;9989;48.962;9.182;2023-07-29T13:57:29;4.30;;;1.93;;
19679;SDS011;9989;48.962;9.182;2023-07-29T13:59:55;4.47;;;1.93;;
19679;SDS011;9989;48.962;9.182;2023-07-29T14:02:20;5.67;;;2.00;;
19679;SDS011;9989;48.962;9.182;2023-07-29T14:04:46;3.77;;;1.70;;
19679;SDS011;9989;48.962;9.182;2023-07-29T14:07:11;4.80;;;1.83;;
19679;SDS011;9989;48.962;9.182;2023-07-29T14:09:37;4.20;;;1.80;;
19679;SDS011;9989;48.962;9.182;2023-07-29T14:12:03;3.77;;;1.90;;
19679;SDS011;9989;48.962;9.182;2023-07-29T14:14:29;4.23;;;1.67;;
19679;SDS011;9989;48.962;9.182;2023-07-29T14:16:55;4.87;;;2.10;;
19679;SDS011;9989;48.962;9.182;2023-07-29T14:19:21;4.40;;;1.70;;
19679;SDS011;9989;48.962;9.182;2023-07-29T14:21:46;3.93;;;1.63;;
19679;SDS011;9989;48.962;9.182;2023-07-29T14:24:12;4.20;;;1.83;;
19679;SDS011;9989;48.962;9.182;2023-07-29T14:26:38;5.93;;;1.87;;
19679;SDS011;9989;48.962;9.182;2023-07-29T14:29:03;4.50;;;2.13;;
19679;SDS011;9989;48.962;9.182;2023-07-29T14:31:29;4.20;;;1.83;;
19679;SDS011;9989;48.962;9.182;2023-07-29T14:33:55;4.27;;;1.90;;
19679;SDS011;9989;48.962;9.182;2023-07-29T14:36:20;3.93;;;1.83;;
19679;SDS011;9989;48.962;9.182;2023-07-29T14:38:46;4.53;;;1.93;;
19679;SDS011;9989;48.962;9.182;2023-07-29T14:41:12;4.93;;;1.83;;
19679;SDS011;9989;48.962;9.182;2023-07-29T14:43:38;3.73;;;1.70;;
19679;SDS011;9989;48.962;9.182;2023-07-29T14:46:03;8.27;;;1.87;;
19679;SDS011;9989;48.962;9.182;2023-07-29T14:48:30;5.37;;;2.20;;
19679;SDS011;9989;48.962;9.182;2023-07-29T14:50:55;5.23;;;2.27;;
19679;SDS011;9989;48.962;9.182;2023-07-29T14:53:21;4.37;;;1.83;;
19679;SDS011;9989;48.962;9.182;2023-07-29T14:55:46;4.57;;;2.17;;
19679;SDS011;9989;48.962;9.182;2023-07-29T14:58:12;4.37;;;1.70;;
19679;SDS011;9989;48.962;9.182;2023-07-29T15:00:37;8.07;;;2.33;;
19679;SDS011;9989;48.962;9.182;2023-07-29T15:03:03;3.93;;;2.10;;
19679;SDS011;9989;48.962;9.182;2023-07-29T15:05:29;5.87;;;1.90;;
19679;SDS011;9989;48.962;9.182;2023-07-29T15:07:54;6.97;;;2.40;;
19679;SDS011;9989;48.962;9.182;2023-07-29T15:10:20;4.67;;;2.00;;
19679;SDS011;9989;48.962;9.182;2023-07-29T15:12:46;5.10;;;2.03;;
19679;SDS011;9989;48.962;9.182;2023-07-29T15:15:12;3.90;;;1.97;;
19679;SDS011;9989;48.962;9.182;2023-07-29T15:17:38;5.40;;;1.87;;
19679;SDS011;9989;48.962;9.182;2023-07-29T15:20:03;5.37;;;2.10;;
19679;SDS011;9989;48.962;9.182;2023-07-29T15:22:29;4.23;;;1.83;;